sensor_id;sensor_type;location;lat;lon;timestamp;P1;durP1;ratioP1;P2;durP2;ratioP2
5507;SDS011;2776;51.046;6.772;2023-02-01T00:00:09;17.40;;;7.93;;
5507;SDS011;2776;51.046;6.772;2023-02-01T00:02:37;16.23;;;6.67;;
5507;SDS011;2776;51.046;6.772;2023-02-01T00:05:07;12.07;;;6.30;;
5507;SDS011;2776;51.046;6.772;2023-02-01T00:07:34;15.67;;;7.67;;
5507;SDS011;2776;51.046;6.772;2023-02-01T00:10:01;13.77;;;6.83;;
5507;SDS011;2776;51.046;6.772;2023-02-01T00:12:29;12.63;;;6.70;;
5507;SDS011;2776;51.046;6.772;2023-02-01T00:14:56;13.77;;;6.90;;
5507;SDS011;2776;51.046;6.772;2023-02-01T00:17:22;16.10;;;7.27;;
5507;SDS011;2776;51.046;6.772;2023-02-01T00:19:49;18.13;;;7.00;;
5507;SDS011;2776;51.046;6.772;2023-02-01T00:22:17;11.57;;;6.03;;
5507;SDS011;2776;51.046;6.772;2023-02-01T00:24:44;14.53;;;6.20;;
5507;SDS011;2776;51.046;6.772;2023-02-01T00:27:11;18.60;;;6.80;;
5507;SDS011;2776;51.046;6.772;2023-02-01T00:29:42;11.27;;;5.77;;
5507;SDS011;2776;51.046;6.772;2023-02-01T00:32:09;13.07;;;5.43;;
5507;SDS011;2776;51.046;6.772;2023-02-01T00:34:36;18.73;;;5.50;;
5507;SDS011;2776;51.046;6.772;2023-02-01T00:37:03;13.47;;;5.27;;
5507;SDS011;2776;51.046;6.772;2023-02-01T00:39:31;13.77;;;4.87;;
5507;SDS011;2776;51.046;6.772;2023-02-01T00:41:59;12.63;;;4.83;;
5507;SDS011;2776;51.046;6.772;2023-02-01T00:44:26;17.33;;;5.27;;
5507;SDS011;2776;51.046;6.772;2023-02-01T00:46:53;16.67;;;5.40;;
5507;SDS011;2776;51.046;6.772;2023-02-01T00:49:19;15.17;;;5.30;;
5507;SDS011;2776;51.046;6.772;2023-02-01T00:51:46;14.43;;;4.30;;
5507;SDS011;2776;51.046;6.772;2023-02-01T00:54:13;17.73;;;4.80;;
5507;SDS011;2776;51.046;6.772;2023-02-01T00:56:41;7.13;;;3.70;;
5507;SDS011;2776;51.046;6.772;2023-02-01T00:59:10;18.97;;;4.00;;
5507;SDS011;2776;51.046;6.772;2023-02-01T01:01:37;15.53;;;4.07;;
5507;SDS011;2776;51.046;6.772;2023-02-01T01:04:04;18.77;;;4.17;;
5507;SDS011;2776;51.046;6.772;2023-02-01T01:06:32;15.13;;;3.70;;
5507;SDS011;2776;51.046;6.772;2023-02-01T01:09:00;11.17;;;3.53;;
5507;SDS011;2776;51.046;6.772;2023-02-01T01:11:29;13.00;;;3.83;;
5507;SDS011;2776;51.046;6.772;2023-02-01T01:13:59;8.83;;;3.23;;
5507;SDS011;2776;51.046;6.772;2023-02-01T01:16:27;11.93;;;3.17;;
5507;SDS011;2776;51.046;6.772;2023-02-01T01:18:55;14.00;;;3.53;;
5507;SDS011;2776;51.046;6.772;2023-02-01T01:21:22;12.40;;;3.00;;
5507;SDS011;2776;51.046;6.772;2023-02-01T01:23:49;15.97;;;3.20;;
5507;SDS011;2776;51.046;6.772;2023-02-01T01:26:16;13.07;;;3.03;;
5507;SDS011;2776;51.046;6.772;2023-02-01T01:28:44;9.70;;;2.90;;
5507;SDS011;2776;51.046;6.772;2023-02-01T01:31:13;9.70;;;3.30;;
5507;SDS011;2776;51.046;6.772;2023-02-01T01:33:41;6.47;;;2.57;;
5507;SDS011;2776;51.046;6.772;2023-02-01T01:36:08;7.60;;;3.10;;
5507;SDS011;2776;51.046;6.772;2023-02-01T01:38:36;9.93;;;2.57;;
5507;SDS011;2776;51.046;6.772;2023-02-01T01:41:04;12.10;;;3.33;;
5507;SDS011;2776;51.046;6.772;2023-02-01T01:43:44;9.93;;;3.00;;
5507;SDS011;2776;51.046;6.772;2023-02-01T01:46:16;14.87;;;3.63;;
5507;SDS011;2776;51.046;6.772;2023-02-01T01:48:44;7.30;;;3.47;;
5507;SDS011;2776;51.046;6.772;2023-02-01T01:51:13;11.63;;;3.10;;
5507;SDS011;2776;51.046;6.772;2023-02-01T01:53:45;10.20;;;3.23;;
5507;SDS011;2776;51.046;6.772;2023-02-01T01:56:19;12.73;;;2.97;;
5507;SDS011;2776;51.046;6.772;2023-02-01T01:58:46;15.27;;;3.37;;
5507;SDS011;2776;51.046;6.772;2023-02-01T02:01:12;7.40;;;2.80;;
5507;SDS011;2776;51.046;6.772;2023-02-01T02:03:41;14.97;;;3.63;;
5507;SDS011;2776;51.046;6.772;2023-02-01T02:06:11;10.10;;;3.27;;
5507;SDS011;2776;51.046;6.772;2023-02-01T02:08:46;11.70;;;3.17;;
5507;SDS011;2776;51.046;6.772;2023-02-01T02:11:14;10.80;;;4.27;;
5507;SDS011;2776;51.046;6.772;2023-02-01T02:13:44;11.43;;;2.77;;
5507;SDS011;2776;51.046;6.772;2023-02-01T02:16:18;12.63;;;3.27;;
5507;SDS011;2776;51.046;6.772;2023-02-01T02:18:55;15.43;;;3.03;;
5507;SDS011;2776;51.046;6.772;2023-02-01T02:21:49;13.57;;;3.40;;
5507;SDS011;2776;51.046;6.772;2023-02-01T02:24:38;9.83;;;2.97;;
5507;SDS011;2776;51.046;6.772;2023-02-01T02:27:21;10.50;;;2.97;;
5507;SDS011;2776;51.046;6.772;2023-02-01T02:30:02;14.13;;;3.43;;
5507;SDS011;2776;51.046;6.772;2023-02-01T02:36:00;13.03;;;3.40;;
5507;SDS011;2776;51.046;6.772;2023-02-01T02:38:32;18.43;;;3.47;;
5507;SDS011;2776;51.046;6.772;2023-02-01T02:41:17;13.43;;;3.20;;
5507;SDS011;2776;51.046;6.772;2023-02-01T02:44:01;6.30;;;3.07;;
5507;SDS011;2776;51.046;6.772;2023-02-01T02:46:53;14.20;;;3.37;;
5507;SDS011;2776;51.046;6.772;2023-02-01T02:49:49;12.87;;;4.67;;
5507;SDS011;2776;51.046;6.772;2023-02-01T02:52:34;10.87;;;3.33;;
5507;SDS011;2776;51.046;6.772;2023-02-01T02:55:22;13.40;;;3.67;;
5507;SDS011;2776;51.046;6.772;2023-02-01T02:57:50;13.20;;;3.60;;
5507;SDS011;2776;51.046;6.772;2023-02-01T03:00:35;11.47;;;3.83;;
5507;SDS011;2776;51.046;6.772;2023-02-01T03:03:21;11.03;;;4.33;;
5507;SDS011;2776;51.046;6.772;2023-02-01T03:06:08;11.70;;;4.40;;
5507;SDS011;2776;51.046;6.772;2023-02-01T03:08:41;16.90;;;4.43;;
5507;SDS011;2776;51.046;6.772;2023-02-01T03:11:11;16.17;;;4.83;;
5507;SDS011;2776;51.046;6.772;2023-02-01T03:13:41;13.43;;;4.87;;
5507;SDS011;2776;51.046;6.772;2023-02-01T03:16:15;16.13;;;5.20;;
5507;SDS011;2776;51.046;6.772;2023-02-01T03:18:52;14.60;;;5.50;;
5507;SDS011;2776;51.046;6.772;2023-02-01T03:21:24;17.80;;;5.40;;
5507;SDS011;2776;51.046;6.772;2023-02-01T03:23:56;14.77;;;5.37;;
5507;SDS011;2776;51.046;6.772;2023-02-01T03:26:27;19.83;;;6.00;;
5507;SDS011;2776;51.046;6.772;2023-02-01T03:28:57;18.10;;;4.70;;
5507;SDS011;2776;51.046;6.772;2023-02-01T03:31:28;17.83;;;4.77;;
5507;SDS011;2776;51.046;6.772;2023-02-01T03:33:55;14.73;;;4.63;;
5507;SDS011;2776;51.046;6.772;2023-02-01T03:36:25;11.10;;;4.43;;
5507;SDS011;2776;51.046;6.772;2023-02-01T03:38:58;16.07;;;4.80;;
5507;SDS011;2776;51.046;6.772;2023-02-01T03:41:32;12.17;;;4.80;;
5507;SDS011;2776;51.046;6.772;2023-02-01T03:44:04;13.53;;;4.33;;
5507;SDS011;2776;51.046;6.772;2023-02-01T03:46:36;11.80;;;4.23;;
5507;SDS011;2776;51.046;6.772;2023-02-01T03:49:07;12.10;;;4.00;;
5507;SDS011;2776;51.046;6.772;2023-02-01T03:51:39;12.80;;;3.87;;
5507;SDS011;2776;51.046;6.772;2023-02-01T03:54:07;12.07;;;4.30;;
5507;SDS011;2776;51.046;6.772;2023-02-01T03:56:38;13.90;;;3.67;;
5507;SDS011;2776;51.046;6.772;2023-02-01T03:59:09;12.27;;;3.83;;
5507;SDS011;2776;51.046;6.772;2023-02-01T04:01:36;13.40;;;4.10;;
5507;SDS011;2776;51.046;6.772;2023-02-01T04:04:03;10.17;;;3.73;;
5507;SDS011;2776;51.046;6.772;2023-02-01T04:06:30;19.73;;;4.30;;
5507;SDS011;2776;51.046;6.772;2023-02-01T04:08:58;15.70;;;3.87;;
5507;SDS011;2776;51.046;6.772;2023-02-01T04:11:25;16.87;;;4.60;;
5507;SDS011;2776;51.046;6.772;2023-02-01T04:13:52;15.50;;;4.13;;
5507;SDS011;2776;51.046;6.772;2023-02-01T04:16:19;21.37;;;4.10;;
5507;SDS011;2776;51.046;6.772;2023-02-01T04:18:45;15.60;;;3.53;;
5507;SDS011;2776;51.046;6.772;2023-02-01T04:21:12;12.13;;;3.57;;
5507;SDS011;2776;51.046;6.772;2023-02-01T04:23:39;12.53;;;3.50;;
5507;SDS011;2776;51.046;6.772;2023-02-01T04:26:07;16.37;;;3.93;;
5507;SDS011;2776;51.046;6.772;2023-02-01T04:28:33;12.30;;;3.67;;
5507;SDS011;2776;51.046;6.772;2023-02-01T04:31:00;16.60;;;3.80;;
5507;SDS011;2776;51.046;6.772;2023-02-01T04:33:27;12.93;;;3.13;;
5507;SDS011;2776;51.046;6.772;2023-02-01T04:35:53;12.57;;;4.07;;
5507;SDS011;2776;51.046;6.772;2023-02-01T04:38:20;21.50;;;4.03;;
5507;SDS011;2776;51.046;6.772;2023-02-01T04:40:47;13.90;;;3.37;;
5507;SDS011;2776;51.046;6.772;2023-02-01T04:43:16;16.37;;;4.00;;
5507;SDS011;2776;51.046;6.772;2023-02-01T04:45:46;11.57;;;3.27;;
5507;SDS011;2776;51.046;6.772;2023-02-01T04:48:14;10.83;;;3.47;;
5507;SDS011;2776;51.046;6.772;2023-02-01T04:50:41;14.50;;;3.67;;
5507;SDS011;2776;51.046;6.772;2023-02-01T04:53:10;16.33;;;4.43;;
5507;SDS011;2776;51.046;6.772;2023-02-01T04:55:37;8.90;;;2.80;;
5507;SDS011;2776;51.046;6.772;2023-02-01T04:58:03;14.93;;;3.63;;
5507;SDS011;2776;51.046;6.772;2023-02-01T05:00:31;13.13;;;3.50;;
5507;SDS011;2776;51.046;6.772;2023-02-01T05:02:58;19.37;;;3.73;;
5507;SDS011;2776;51.046;6.772;2023-02-01T05:05:26;14.87;;;3.50;;
5507;SDS011;2776;51.046;6.772;2023-02-01T05:07:53;19.70;;;3.63;;
5507;SDS011;2776;51.046;6.772;2023-02-01T05:10:20;14.77;;;3.53;;
5507;SDS011;2776;51.046;6.772;2023-02-01T05:12:47;13.40;;;3.33;;
5507;SDS011;2776;51.046;6.772;2023-02-01T05:15:32;15.43;;;3.60;;
5507;SDS011;2776;51.046;6.772;2023-02-01T05:17:59;12.03;;;3.50;;
5507;SDS011;2776;51.046;6.772;2023-02-01T05:20:26;18.37;;;4.17;;
5507;SDS011;2776;51.046;6.772;2023-02-01T05:22:53;14.97;;;3.43;;
5507;SDS011;2776;51.046;6.772;2023-02-01T05:25:19;21.73;;;3.53;;
5507;SDS011;2776;51.046;6.772;2023-02-01T05:27:46;12.53;;;3.67;;
5507;SDS011;2776;51.046;6.772;2023-02-01T05:30:13;16.43;;;3.30;;
5507;SDS011;2776;51.046;6.772;2023-02-01T05:32:41;14.73;;;2.87;;
5507;SDS011;2776;51.046;6.772;2023-02-01T05:35:08;20.30;;;3.00;;
5507;SDS011;2776;51.046;6.772;2023-02-01T05:37:35;14.67;;;3.27;;
5507;SDS011;2776;51.046;6.772;2023-02-01T05:40:01;12.03;;;2.70;;
5507;SDS011;2776;51.046;6.772;2023-02-01T05:42:28;18.43;;;3.73;;
5507;SDS011;2776;51.046;6.772;2023-02-01T05:44:55;11.57;;;3.70;;
5507;SDS011;2776;51.046;6.772;2023-02-01T05:47:22;10.37;;;2.80;;
5507;SDS011;2776;51.046;6.772;2023-02-01T05:49:50;10.10;;;2.60;;
5507;SDS011;2776;51.046;6.772;2023-02-01T05:52:17;12.87;;;2.80;;
5507;SDS011;2776;51.046;6.772;2023-02-01T05:54:44;15.77;;;3.20;;
5507;SDS011;2776;51.046;6.772;2023-02-01T05:57:11;12.97;;;2.70;;
5507;SDS011;2776;51.046;6.772;2023-02-01T05:59:38;11.37;;;2.97;;
5507;SDS011;2776;51.046;6.772;2023-02-01T06:02:09;12.83;;;3.27;;
5507;SDS011;2776;51.046;6.772;2023-02-01T06:04:36;15.17;;;3.07;;
5507;SDS011;2776;51.046;6.772;2023-02-01T06:07:04;17.90;;;3.43;;
5507;SDS011;2776;51.046;6.772;2023-02-01T06:09:32;18.60;;;3.80;;
5507;SDS011;2776;51.046;6.772;2023-02-01T06:11:58;12.07;;;2.93;;
5507;SDS011;2776;51.046;6.772;2023-02-01T06:14:26;15.67;;;2.80;;
5507;SDS011;2776;51.046;6.772;2023-02-01T06:16:52;15.30;;;2.60;;
5507;SDS011;2776;51.046;6.772;2023-02-01T06:19:19;10.97;;;2.80;;
5507;SDS011;2776;51.046;6.772;2023-02-01T06:21:46;18.67;;;3.53;;
5507;SDS011;2776;51.046;6.772;2023-02-01T06:24:15;12.87;;;3.17;;
5507;SDS011;2776;51.046;6.772;2023-02-01T06:26:41;17.53;;;3.07;;
5507;SDS011;2776;51.046;6.772;2023-02-01T06:29:09;14.50;;;3.53;;
5507;SDS011;2776;51.046;6.772;2023-02-01T06:31:36;12.30;;;2.87;;
5507;SDS011;2776;51.046;6.772;2023-02-01T06:34:03;15.23;;;4.00;;
5507;SDS011;2776;51.046;6.772;2023-02-01T06:36:29;15.73;;;3.23;;
5507;SDS011;2776;51.046;6.772;2023-02-01T06:38:56;14.00;;;3.00;;
5507;SDS011;2776;51.046;6.772;2023-02-01T06:41:25;16.30;;;3.30;;
5507;SDS011;2776;51.046;6.772;2023-02-01T06:43:52;12.77;;;2.90;;
5507;SDS011;2776;51.046;6.772;2023-02-01T06:46:19;17.23;;;3.70;;
5507;SDS011;2776;51.046;6.772;2023-02-01T06:48:46;16.83;;;3.33;;
5507;SDS011;2776;51.046;6.772;2023-02-01T06:51:21;14.13;;;3.20;;
5507;SDS011;2776;51.046;6.772;2023-02-01T06:53:48;16.50;;;4.07;;
5507;SDS011;2776;51.046;6.772;2023-02-01T06:56:15;10.87;;;3.30;;
5507;SDS011;2776;51.046;6.772;2023-02-01T06:58:44;14.53;;;3.37;;
5507;SDS011;2776;51.046;6.772;2023-02-01T07:01:11;12.97;;;3.63;;
5507;SDS011;2776;51.046;6.772;2023-02-01T07:03:38;14.63;;;3.60;;
5507;SDS011;2776;51.046;6.772;2023-02-01T07:06:05;15.10;;;3.20;;
5507;SDS011;2776;51.046;6.772;2023-02-01T07:08:33;9.97;;;3.00;;
5507;SDS011;2776;51.046;6.772;2023-02-01T07:11:02;11.17;;;2.87;;
5507;SDS011;2776;51.046;6.772;2023-02-01T07:13:29;14.83;;;3.47;;
5507;SDS011;2776;51.046;6.772;2023-02-01T07:15:58;14.27;;;3.23;;
5507;SDS011;2776;51.046;6.772;2023-02-01T07:18:26;10.57;;;3.13;;
5507;SDS011;2776;51.046;6.772;2023-02-01T07:20:54;17.23;;;3.27;;
5507;SDS011;2776;51.046;6.772;2023-02-01T07:23:21;16.63;;;3.00;;
5507;SDS011;2776;51.046;6.772;2023-02-01T07:25:48;14.77;;;3.00;;
5507;SDS011;2776;51.046;6.772;2023-02-01T07:28:18;14.37;;;3.60;;
5507;SDS011;2776;51.046;6.772;2023-02-01T07:30:45;13.33;;;3.17;;
5507;SDS011;2776;51.046;6.772;2023-02-01T07:33:17;12.80;;;3.17;;
5507;SDS011;2776;51.046;6.772;2023-02-01T07:35:44;11.17;;;2.97;;
5507;SDS011;2776;51.046;6.772;2023-02-01T07:38:11;18.33;;;3.27;;
5507;SDS011;2776;51.046;6.772;2023-02-01T07:40:38;17.50;;;3.13;;
5507;SDS011;2776;51.046;6.772;2023-02-01T07:43:05;15.53;;;3.00;;
5507;SDS011;2776;51.046;6.772;2023-02-01T07:45:32;11.47;;;3.47;;
5507;SDS011;2776;51.046;6.772;2023-02-01T07:47:59;19.17;;;3.77;;
5507;SDS011;2776;51.046;6.772;2023-02-01T07:50:28;11.97;;;2.90;;
5507;SDS011;2776;51.046;6.772;2023-02-01T07:52:54;10.73;;;3.00;;
5507;SDS011;2776;51.046;6.772;2023-02-01T07:55:21;16.80;;;3.00;;
5507;SDS011;2776;51.046;6.772;2023-02-01T07:57:48;16.57;;;2.93;;
5507;SDS011;2776;51.046;6.772;2023-02-01T08:00:15;10.93;;;2.87;;
5507;SDS011;2776;51.046;6.772;2023-02-01T08:03:00;18.83;;;3.87;;
5507;SDS011;2776;51.046;6.772;2023-02-01T08:05:28;17.70;;;3.30;;
5507;SDS011;2776;51.046;6.772;2023-02-01T08:07:55;14.13;;;3.50;;
5507;SDS011;2776;51.046;6.772;2023-02-01T08:10:21;11.23;;;3.03;;
5507;SDS011;2776;51.046;6.772;2023-02-01T08:12:48;14.03;;;4.20;;
5507;SDS011;2776;51.046;6.772;2023-02-01T08:15:17;13.53;;;3.53;;
5507;SDS011;2776;51.046;6.772;2023-02-01T08:17:47;10.63;;;3.23;;
5507;SDS011;2776;51.046;6.772;2023-02-01T08:20:14;11.83;;;3.23;;
5507;SDS011;2776;51.046;6.772;2023-02-01T08:22:42;13.13;;;3.30;;
5507;SDS011;2776;51.046;6.772;2023-02-01T08:25:09;19.60;;;3.47;;
5507;SDS011;2776;51.046;6.772;2023-02-01T08:27:37;16.07;;;3.43;;
5507;SDS011;2776;51.046;6.772;2023-02-01T08:30:04;13.60;;;2.93;;
5507;SDS011;2776;51.046;6.772;2023-02-01T08:32:32;13.83;;;3.07;;
5507;SDS011;2776;51.046;6.772;2023-02-01T08:35:00;16.00;;;3.93;;
5507;SDS011;2776;51.046;6.772;2023-02-01T08:37:27;12.90;;;2.73;;
5507;SDS011;2776;51.046;6.772;2023-02-01T08:39:55;15.50;;;2.83;;
5507;SDS011;2776;51.046;6.772;2023-02-01T08:42:21;15.63;;;3.70;;
5507;SDS011;2776;51.046;6.772;2023-02-01T08:45:06;14.30;;;3.37;;
5507;SDS011;2776;51.046;6.772;2023-02-01T08:47:34;13.77;;;4.33;;
5507;SDS011;2776;51.046;6.772;2023-02-01T08:50:01;11.27;;;3.47;;
5507;SDS011;2776;51.046;6.772;2023-02-01T08:52:28;10.97;;;3.03;;
5507;SDS011;2776;51.046;6.772;2023-02-01T08:54:56;16.13;;;3.53;;
5507;SDS011;2776;51.046;6.772;2023-02-01T08:57:23;16.27;;;3.70;;
5507;SDS011;2776;51.046;6.772;2023-02-01T08:59:49;15.60;;;3.97;;
5507;SDS011;2776;51.046;6.772;2023-02-01T09:02:16;13.60;;;2.97;;
5507;SDS011;2776;51.046;6.772;2023-02-01T09:04:44;10.43;;;2.73;;
5507;SDS011;2776;51.046;6.772;2023-02-01T09:07:10;14.00;;;3.80;;
5507;SDS011;2776;51.046;6.772;2023-02-01T09:09:38;20.93;;;4.17;;
5507;SDS011;2776;51.046;6.772;2023-02-01T09:12:06;13.90;;;3.07;;
5507;SDS011;2776;51.046;6.772;2023-02-01T09:14:33;18.03;;;3.27;;
5507;SDS011;2776;51.046;6.772;2023-02-01T09:17:00;15.83;;;4.03;;
5507;SDS011;2776;51.046;6.772;2023-02-01T09:19:26;11.13;;;2.80;;
5507;SDS011;2776;51.046;6.772;2023-02-01T09:21:53;12.73;;;3.57;;
5507;SDS011;2776;51.046;6.772;2023-02-01T09:24:20;13.47;;;3.33;;
5507;SDS011;2776;51.046;6.772;2023-02-01T09:26:47;14.67;;;3.10;;
5507;SDS011;2776;51.046;6.772;2023-02-01T09:29:15;14.07;;;3.40;;
5507;SDS011;2776;51.046;6.772;2023-02-01T09:31:42;9.60;;;3.00;;
5507;SDS011;2776;51.046;6.772;2023-02-01T09:34:08;11.47;;;3.63;;
5507;SDS011;2776;51.046;6.772;2023-02-01T09:36:35;11.77;;;2.83;;
5507;SDS011;2776;51.046;6.772;2023-02-01T09:39:02;17.70;;;3.80;;
5507;SDS011;2776;51.046;6.772;2023-02-01T09:41:32;16.10;;;3.87;;
5507;SDS011;2776;51.046;6.772;2023-02-01T09:44:10;17.33;;;3.53;;
5507;SDS011;2776;51.046;6.772;2023-02-01T09:46:47;12.10;;;3.33;;
5507;SDS011;2776;51.046;6.772;2023-02-01T09:49:17;10.10;;;2.73;;
5507;SDS011;2776;51.046;6.772;2023-02-01T09:51:48;12.30;;;3.07;;
5507;SDS011;2776;51.046;6.772;2023-02-01T09:54:18;21.00;;;3.57;;
5507;SDS011;2776;51.046;6.772;2023-02-01T09:56:48;12.53;;;3.00;;
5507;SDS011;2776;51.046;6.772;2023-02-01T09:59:26;14.20;;;2.97;;
5507;SDS011;2776;51.046;6.772;2023-02-01T10:01:59;14.07;;;3.17;;
5507;SDS011;2776;51.046;6.772;2023-02-01T10:04:29;18.17;;;4.00;;
5507;SDS011;2776;51.046;6.772;2023-02-01T10:07:01;13.47;;;3.13;;
5507;SDS011;2776;51.046;6.772;2023-02-01T10:09:47;13.43;;;3.17;;
5507;SDS011;2776;51.046;6.772;2023-02-01T10:15:32;11.60;;;3.07;;
5507;SDS011;2776;51.046;6.772;2023-02-01T10:18:17;12.47;;;3.37;;
5507;SDS011;2776;51.046;6.772;2023-02-01T10:20:56;15.13;;;3.80;;
5507;SDS011;2776;51.046;6.772;2023-02-01T10:23:31;15.63;;;3.70;;
5507;SDS011;2776;51.046;6.772;2023-02-01T10:26:17;11.93;;;3.37;;
5507;SDS011;2776;51.046;6.772;2023-02-01T10:28:46;10.67;;;3.30;;
5507;SDS011;2776;51.046;6.772;2023-02-01T10:31:17;13.13;;;2.93;;
5507;SDS011;2776;51.046;6.772;2023-02-01T10:33:45;13.50;;;2.83;;
5507;SDS011;2776;51.046;6.772;2023-02-01T10:36:15;12.83;;;3.50;;
5507;SDS011;2776;51.046;6.772;2023-02-01T10:38:45;14.43;;;3.97;;
5507;SDS011;2776;51.046;6.772;2023-02-01T10:41:13;13.37;;;3.20;;
5507;SDS011;2776;51.046;6.772;2023-02-01T10:43:42;11.60;;;3.23;;
5507;SDS011;2776;51.046;6.772;2023-02-01T10:46:13;11.13;;;2.53;;
5507;SDS011;2776;51.046;6.772;2023-02-01T10:48:41;11.67;;;3.17;;
5507;SDS011;2776;51.046;6.772;2023-02-01T10:51:10;11.70;;;3.23;;
5507;SDS011;2776;51.046;6.772;2023-02-01T10:53:42;10.50;;;2.93;;
5507;SDS011;2776;51.046;6.772;2023-02-01T10:56:14;13.70;;;3.63;;
5507;SDS011;2776;51.046;6.772;2023-02-01T10:58:47;16.77;;;3.73;;
5507;SDS011;2776;51.046;6.772;2023-02-01T11:01:16;14.20;;;2.90;;
5507;SDS011;2776;51.046;6.772;2023-02-01T11:03:46;14.20;;;3.27;;
5507;SDS011;2776;51.046;6.772;2023-02-01T11:06:24;16.50;;;3.97;;
5507;SDS011;2776;51.046;6.772;2023-02-01T11:08:54;12.37;;;3.13;;
5507;SDS011;2776;51.046;6.772;2023-02-01T11:11:23;14.77;;;4.77;;
5507;SDS011;2776;51.046;6.772;2023-02-01T11:13:51;14.03;;;3.80;;
5507;SDS011;2776;51.046;6.772;2023-02-01T11:16:20;14.17;;;3.23;;
5507;SDS011;2776;51.046;6.772;2023-02-01T11:18:48;12.97;;;3.13;;
5507;SDS011;2776;51.046;6.772;2023-02-01T11:21:20;13.97;;;2.97;;
5507;SDS011;2776;51.046;6.772;2023-02-01T11:23:47;14.80;;;3.50;;
5507;SDS011;2776;51.046;6.772;2023-02-01T11:26:15;11.13;;;3.70;;
5507;SDS011;2776;51.046;6.772;2023-02-01T11:28:50;14.97;;;3.63;;
5507;SDS011;2776;51.046;6.772;2023-02-01T11:31:20;15.73;;;3.17;;
5507;SDS011;2776;51.046;6.772;2023-02-01T11:33:51;11.83;;;3.10;;
5507;SDS011;2776;51.046;6.772;2023-02-01T11:36:21;11.27;;;2.60;;
5507;SDS011;2776;51.046;6.772;2023-02-01T11:38:52;12.33;;;2.93;;
5507;SDS011;2776;51.046;6.772;2023-02-01T11:41:22;12.87;;;3.23;;
5507;SDS011;2776;51.046;6.772;2023-02-01T11:43:54;13.63;;;3.00;;
5507;SDS011;2776;51.046;6.772;2023-02-01T11:46:24;15.13;;;3.10;;
5507;SDS011;2776;51.046;6.772;2023-02-01T11:48:57;15.97;;;3.43;;
5507;SDS011;2776;51.046;6.772;2023-02-01T11:51:46;13.37;;;3.63;;
5507;SDS011;2776;51.046;6.772;2023-02-01T11:54:29;11.90;;;3.50;;
5507;SDS011;2776;51.046;6.772;2023-02-01T11:57:13;13.27;;;3.17;;
5507;SDS011;2776;51.046;6.772;2023-02-01T11:59:51;13.43;;;3.10;;
5507;SDS011;2776;51.046;6.772;2023-02-01T12:05:30;15.07;;;3.13;;
5507;SDS011;2776;51.046;6.772;2023-02-01T12:08:09;14.00;;;4.13;;
5507;SDS011;2776;51.046;6.772;2023-02-01T12:10:51;12.73;;;3.00;;
5507;SDS011;2776;51.046;6.772;2023-02-01T12:13:30;15.53;;;3.27;;
5507;SDS011;2776;51.046;6.772;2023-02-01T12:16:10;13.63;;;2.90;;
5507;SDS011;2776;51.046;6.772;2023-02-01T12:18:52;13.67;;;3.23;;
5507;SDS011;2776;51.046;6.772;2023-02-01T12:21:36;18.43;;;3.27;;
5507;SDS011;2776;51.046;6.772;2023-02-01T12:24:24;10.43;;;2.80;;
5507;SDS011;2776;51.046;6.772;2023-02-01T12:27:02;11.67;;;2.97;;
5507;SDS011;2776;51.046;6.772;2023-02-01T12:29:56;12.17;;;3.23;;
5507;SDS011;2776;51.046;6.772;2023-02-01T12:32:38;10.20;;;2.77;;
5507;SDS011;2776;51.046;6.772;2023-02-01T12:35:14;16.27;;;3.93;;
5507;SDS011;2776;51.046;6.772;2023-02-01T12:38:00;12.20;;;3.47;;
5507;SDS011;2776;51.046;6.772;2023-02-01T12:40:49;17.27;;;3.30;;
5507;SDS011;2776;51.046;6.772;2023-02-01T12:43:29;12.03;;;3.37;;
5507;SDS011;2776;51.046;6.772;2023-02-01T12:46:06;8.77;;;3.10;;
5507;SDS011;2776;51.046;6.772;2023-02-01T12:48:36;13.87;;;3.00;;
5507;SDS011;2776;51.046;6.772;2023-02-01T12:51:09;13.33;;;2.60;;
5507;SDS011;2776;51.046;6.772;2023-02-01T12:53:44;11.17;;;2.47;;
5507;SDS011;2776;51.046;6.772;2023-02-01T12:56:18;15.63;;;3.47;;
5507;SDS011;2776;51.046;6.772;2023-02-01T12:58:49;8.10;;;2.20;;
5507;SDS011;2776;51.046;6.772;2023-02-01T13:01:20;11.23;;;2.40;;
5507;SDS011;2776;51.046;6.772;2023-02-01T13:03:53;10.30;;;2.33;;
5507;SDS011;2776;51.046;6.772;2023-02-01T13:06:26;15.50;;;3.23;;
5507;SDS011;2776;51.046;6.772;2023-02-01T13:09:00;10.43;;;3.07;;
5507;SDS011;2776;51.046;6.772;2023-02-01T13:11:31;13.07;;;2.80;;
5507;SDS011;2776;51.046;6.772;2023-02-01T13:14:01;8.83;;;2.37;;
5507;SDS011;2776;51.046;6.772;2023-02-01T13:16:32;10.87;;;3.03;;
5507;SDS011;2776;51.046;6.772;2023-02-01T13:19:03;17.90;;;3.27;;
5507;SDS011;2776;51.046;6.772;2023-02-01T13:21:37;7.90;;;2.90;;
5507;SDS011;2776;51.046;6.772;2023-02-01T13:24:15;10.33;;;2.60;;
5507;SDS011;2776;51.046;6.772;2023-02-01T13:26:54;10.40;;;3.40;;
5507;SDS011;2776;51.046;6.772;2023-02-01T13:29:21;10.37;;;2.60;;
5507;SDS011;2776;51.046;6.772;2023-02-01T13:31:59;10.17;;;2.80;;
5507;SDS011;2776;51.046;6.772;2023-02-01T13:34:56;10.73;;;2.67;;
5507;SDS011;2776;51.046;6.772;2023-02-01T13:37:44;8.73;;;2.33;;
5507;SDS011;2776;51.046;6.772;2023-02-01T13:40:29;13.00;;;3.03;;
5507;SDS011;2776;51.046;6.772;2023-02-01T13:43:05;8.93;;;2.50;;
5507;SDS011;2776;51.046;6.772;2023-02-01T13:45:41;12.00;;;2.43;;
5507;SDS011;2776;51.046;6.772;2023-02-01T13:48:17;15.83;;;2.90;;
5507;SDS011;2776;51.046;6.772;2023-02-01T13:50:49;12.00;;;2.63;;
5507;SDS011;2776;51.046;6.772;2023-02-01T13:53:20;12.43;;;3.00;;
5507;SDS011;2776;51.046;6.772;2023-02-01T13:55:56;13.50;;;2.70;;
5507;SDS011;2776;51.046;6.772;2023-02-01T13:58:29;9.63;;;2.27;;
5507;SDS011;2776;51.046;6.772;2023-02-01T14:03:58;11.90;;;3.07;;
5507;SDS011;2776;51.046;6.772;2023-02-01T14:06:36;10.10;;;2.20;;
5507;SDS011;2776;51.046;6.772;2023-02-01T14:09:11;9.97;;;2.37;;
5507;SDS011;2776;51.046;6.772;2023-02-01T14:11:44;10.83;;;2.40;;
5507;SDS011;2776;51.046;6.772;2023-02-01T14:23:22;7.83;;;2.00;;
5507;SDS011;2776;51.046;6.772;2023-02-01T14:26:04;10.17;;;2.37;;
5507;SDS011;2776;51.046;6.772;2023-02-01T14:29:00;9.73;;;2.57;;
5507;SDS011;2776;51.046;6.772;2023-02-01T14:31:43;8.43;;;2.47;;
5507;SDS011;2776;51.046;6.772;2023-02-01T14:34:20;8.00;;;2.63;;
5507;SDS011;2776;51.046;6.772;2023-02-01T14:36:52;11.67;;;2.10;;
5507;SDS011;2776;51.046;6.772;2023-02-01T14:42:21;5.37;;;1.63;;
5507;SDS011;2776;51.046;6.772;2023-02-01T14:44:53;11.57;;;3.13;;
5507;SDS011;2776;51.046;6.772;2023-02-01T14:47:31;11.33;;;2.20;;
5507;SDS011;2776;51.046;6.772;2023-02-01T14:50:03;10.80;;;2.47;;
5507;SDS011;2776;51.046;6.772;2023-02-01T14:52:41;14.23;;;2.37;;
5507;SDS011;2776;51.046;6.772;2023-02-01T14:55:15;12.10;;;2.60;;
5507;SDS011;2776;51.046;6.772;2023-02-01T14:57:45;11.47;;;1.90;;
5507;SDS011;2776;51.046;6.772;2023-02-01T15:00:19;12.47;;;2.90;;
5507;SDS011;2776;51.046;6.772;2023-02-01T15:02:49;8.47;;;2.73;;
5507;SDS011;2776;51.046;6.772;2023-02-01T15:05:22;8.50;;;2.37;;
5507;SDS011;2776;51.046;6.772;2023-02-01T15:07:51;11.73;;;2.30;;
5507;SDS011;2776;51.046;6.772;2023-02-01T15:10:18;12.47;;;2.07;;
5507;SDS011;2776;51.046;6.772;2023-02-01T15:12:47;9.50;;;1.93;;
5507;SDS011;2776;51.046;6.772;2023-02-01T15:15:15;9.83;;;2.00;;
5507;SDS011;2776;51.046;6.772;2023-02-01T15:17:52;10.00;;;2.50;;
5507;SDS011;2776;51.046;6.772;2023-02-01T15:20:20;10.70;;;2.50;;
5507;SDS011;2776;51.046;6.772;2023-02-01T15:22:52;7.87;;;2.07;;
5507;SDS011;2776;51.046;6.772;2023-02-01T15:25:24;12.07;;;2.40;;
5507;SDS011;2776;51.046;6.772;2023-02-01T15:27:52;11.83;;;2.40;;
5507;SDS011;2776;51.046;6.772;2023-02-01T15:30:21;9.47;;;2.13;;
5507;SDS011;2776;51.046;6.772;2023-02-01T15:32:50;12.33;;;3.57;;
5507;SDS011;2776;51.046;6.772;2023-02-01T15:35:37;8.53;;;2.33;;
5507;SDS011;2776;51.046;6.772;2023-02-01T15:41:02;11.93;;;2.23;;
5507;SDS011;2776;51.046;6.772;2023-02-01T15:43:32;11.60;;;2.03;;
5507;SDS011;2776;51.046;6.772;2023-02-01T15:46:06;11.63;;;2.60;;
5507;SDS011;2776;51.046;6.772;2023-02-01T15:48:37;10.57;;;2.10;;
5507;SDS011;2776;51.046;6.772;2023-02-01T15:51:11;10.70;;;2.33;;
5507;SDS011;2776;51.046;6.772;2023-02-01T15:53:43;9.97;;;2.27;;